Time;durP1;ratioP1;P1;durP2;ratioP2;P2;SDS_P1;SDS_P2;PMS_P1;PMS_P2;Temp;Humidity;BMP_temperature;BMP_pressure;BME280_temperature;BME280_humidity;BME280_pressure;Samples;Min_cycle;Max_cycle;Signal;HPM_P1;HPM_P2
2022/11/04 00:01:18;;;;;;;;;;;14.80;99.90;;;;;;5091766;28;19908;-23
2022/11/04 00:03:44;;;;;;;;;;;14.80;99.90;;;;;;5091671;28;19912;-23
2022/11/04 00:06:09;;;;;;;;;;;14.80;99.90;;;;;;5091994;28;19923;-23
2022/11/04 00:08:35;;;;;;;;;;;14.80;99.90;;;;;;5091526;28;19908;-23
2022/11/04 00:13:45;;;;;;;;;;;14.80;99.90;;;;;;5091410;28;19958;-23
2022/11/04 00:18:55;;;;;;;;;;;14.80;99.90;;;;;;5091569;28;19954;-23
2022/11/04 00:29:33;;;;;;;;;;;14.80;99.90;;;;;;5091198;28;19962;-23
2022/11/04 00:34:42;;;;;;;;;;;14.80;99.90;;;;;;5091146;28;19919;-23
2022/11/04 00:37:08;;;;;;;;;;;14.80;99.90;;;;;;5091501;28;19908;-23
2022/11/04 00:39:33;;;;;;;;;;;14.80;99.90;;;;;;5092379;28;19924;-23
2022/11/04 00:41:59;;;;;;;;;;;14.80;99.90;;;;;;5095863;28;19908;-23
2022/11/04 00:44:24;;;;;;;;;;;14.80;99.90;;;;;;5095257;28;19959;-23
2022/11/04 00:46:50;;;;;;;;;;;14.80;99.90;;;;;;5096205;28;19916;-23
2022/11/04 00:49:15;;;;;;;;;;;14.80;99.90;;;;;;5095589;28;19912;-23
2022/11/04 00:51:41;;;;;;;;;;;14.80;99.90;;;;;;5095864;28;19958;-23
2022/11/04 00:54:06;;;;;;;;;;;14.80;99.90;;;;;;5095308;28;19952;-23
2022/11/04 00:56:32;;;;;;;;;;;14.80;99.90;;;;;;5095577;28;20383;-23
2022/11/04 00:59:00;;;;;;;;;;;14.80;99.90;;;;;;5095897;28;19915;-23
2022/11/04 01:01:26;;;;;;;;;;;14.80;99.90;;;;;;5095724;28;20393;-22
2022/11/04 01:03:52;;;;;;;;;;;14.80;99.90;;;;;;5095191;28;19912;-23
2022/11/04 01:06:18;;;;;;;;;;;14.80;99.90;;;;;;5094252;28;19923;-23
2022/11/04 01:08:43;;;;;;;;;;;14.80;99.90;;;;;;5095696;28;20242;-23
2022/11/04 01:11:09;;;;;;;;;;;14.80;99.90;;;;;;5095932;28;19908;-23
2022/11/04 01:13:35;;;;;;;;;;;14.80;99.90;;;;;;5095245;28;19908;-23
2022/11/04 01:16:01;;;;;;;;;;;14.80;99.90;;;;;;5095436;28;19953;-23
2022/11/04 01:18:26;;;;;;;;;;;14.80;99.90;;;;;;5095833;28;20004;-23
2022/11/04 01:20:52;;;;;;;;;;;14.80;99.90;;;;;;5095506;28;19961;-23
2022/11/04 01:23:18;;;;;;;;;;;14.80;99.90;;;;;;5094691;28;19938;-23
2022/11/04 01:25:43;;;;;;;;;;;14.80;99.90;;;;;;5095406;28;19961;-23
2022/11/04 01:28:09;;;;;;;;;;;14.80;99.90;;;;;;5095270;28;20293;-23
2022/11/04 01:30:36;;;;;;;;;;;14.80;99.90;;;;;;5094972;28;20380;-23
2022/11/04 01:33:02;;;;;;;;;;;14.80;99.90;;;;;;5094585;28;20378;-23
2022/11/04 01:35:27;;;;;;;;;;;14.80;99.90;;;;;;5094964;28;20015;-23
2022/11/04 01:37:53;;;;;;;;;;;14.80;99.90;;;;;;5094712;28;19916;-23
2022/11/04 01:40:18;;;;;;;;;;;14.80;99.90;;;;;;5095389;28;19951;-23
2022/11/04 01:42:44;;;;;;;;;;;14.80;99.90;;;;;;5094586;28;19912;-23
2022/11/04 01:45:14;;;;;;;;;;;14.80;99.90;;;;;;5094882;28;19916;-23
2022/11/04 01:47:46;;;;;;;;;;;14.80;99.90;;;;;;5094823;28;20369;-23
2022/11/04 01:50:16;;;;;;;;;;;14.80;99.90;;;;;;5094875;28;19908;-23
2022/11/04 01:52:42;;;;;;;;;;;14.80;99.90;;;;;;5093848;28;20308;-23
2022/11/04 01:55:14;;;;;;;;;;;14.80;99.90;;;;;;5095000;28;19933;-23
2022/11/04 01:57:41;;;;;;;;;;;14.80;99.90;;;;;;5094607;28;19916;-23
2022/11/04 02:00:07;;;;;;;;;;;14.80;99.90;;;;;;5094919;28;20437;-23
2022/11/04 02:02:36;;;;;;;;;;;14.80;99.90;;;;;;5094394;28;19909;-23
2022/11/04 02:05:01;;;;;;;;;;;14.80;99.90;;;;;;5095056;28;19919;-23
2022/11/04 02:07:27;;;;;;;;;;;14.70;99.90;;;;;;5095145;28;19912;-23
2022/11/04 02:09:53;;;;;;;;;;;14.70;99.90;;;;;;5094823;28;19915;-23
2022/11/04 02:15:02;;;;;;;;;;;14.80;99.90;;;;;;5094162;28;19915;-23
2022/11/04 02:17:33;;;;;;;;;;;14.80;99.90;;;;;;5094267;28;20276;-23
2022/11/04 02:20:04;;;;;;;;;;;14.70;99.90;;;;;;5094241;28;19914;-23
2022/11/04 02:22:39;;;;;;;;;;;14.80;99.90;;;;;;5093668;28;20381;-23
2022/11/04 02:25:11;;;;;;;;;;;14.80;99.90;;;;;;5093717;28;19912;-23
2022/11/04 02:28:10;;;;;;;;;;;14.70;99.90;;;;;;5093840;28;19915;-23
2022/11/04 02:30:40;;;;;;;;;;;14.70;99.90;;;;;;5070625;28;19908;-23
2022/11/04 02:33:21;;;;;;;;;;;14.70;99.90;;;;;;5093595;28;19908;-23
2022/11/04 02:35:53;;;;;;;;;;;14.70;99.90;;;;;;5094056;28;20380;-23
2022/11/04 02:38:31;;;;;;;;;;;14.70;99.90;;;;;;5093979;28;19912;-23
2022/11/04 02:40:59;;;;;;;;;;;14.70;99.90;;;;;;5092757;28;19916;-23
2022/11/04 02:43:31;;;;;;;;;;;14.80;99.90;;;;;;5093329;28;20376;-23
2022/11/04 02:46:12;;;;;;;;;;;14.70;99.90;;;;;;5093196;28;19974;-23
2022/11/04 02:48:49;;;;;;;;;;;14.70;99.90;;;;;;5093897;28;19908;-23
2022/11/04 02:51:20;;;;;;;;;;;14.70;99.90;;;;;;5093765;28;20338;-23
2022/11/04 02:53:52;;;;;;;;;;;14.70;99.90;;;;;;5093156;28;20006;-23
2022/11/04 02:56:19;;;;;;;;;;;14.70;99.90;;;;;;5093105;28;19908;-23
2022/11/04 02:58:50;;;;;;;;;;;14.70;99.90;;;;;;5093412;28;19908;-23
2022/11/04 03:01:17;;;;;;;;;;;14.80;99.90;;;;;;5093803;28;20015;-23
2022/11/04 03:03:46;;;;;;;;;;;14.70;99.90;;;;;;5092925;28;19912;-23
2022/11/04 03:06:13;;;;;;;;;;;14.70;99.90;;;;;;5093511;28;19920;-23
2022/11/04 03:08:50;;;;;;;;;;;14.70;99.90;;;;;;5092881;28;20019;-23
2022/11/04 03:11:25;;;;;;;;;;;14.70;99.90;;;;;;5093115;28;19915;-23
2022/11/04 03:13:57;;;;;;;;;;;14.70;99.90;;;;;;5092822;28;19908;-23
2022/11/04 03:16:25;;;;;;;;;;;14.70;99.90;;;;;;5093215;28;19912;-23
2022/11/04 03:19:03;;;;;;;;;;;14.70;99.90;;;;;;5093298;28;19954;-23
2022/11/04 03:21:31;;;;;;;;;;;14.70;99.90;;;;;;5092098;28;19981;-23
2022/11/04 03:23:57;;;;;;;;;;;14.70;99.90;;;;;;5092946;28;19908;-23
2022/11/04 03:26:27;;;;;;;;;;;14.70;99.90;;;;;;5092742;28;19912;-23
2022/11/04 03:28:52;;;;;;;;;;;14.70;99.90;;;;;;5092514;28;19908;-23
2022/11/04 03:31:23;;;;;;;;;;;14.70;99.90;;;;;;5092685;28;20006;-23
2022/11/04 03:33:49;;;;;;;;;;;14.70;99.90;;;;;;5092294;28;20326;-23
2022/11/04 03:36:16;;;;;;;;;;;14.70;99.90;;;;;;5092702;28;20455;-23
2022/11/04 03:38:42;;;;;;;;;;;14.70;99.90;;;;;;5092327;28;19908;-23
2022/11/04 03:41:33;;;;;;;;;;;14.70;99.90;;;;;;5092637;28;19980;-23
2022/11/04 03:43:59;;;;;;;;;;;14.70;99.90;;;;;;5087557;28;19915;-23
2022/11/04 03:46:24;;;;;;;;;;;14.70;99.90;;;;;;5092781;28;19916;-23
2022/11/04 03:48:51;;;;;;;;;;;14.70;99.90;;;;;;5092281;28;19912;-23
2022/11/04 03:51:16;;;;;;;;;;;14.70;99.90;;;;;;5092450;28;19962;-23
2022/11/04 03:53:42;;;;;;;;;;;14.70;99.90;;;;;;5091973;28;19954;-23
2022/11/04 03:56:24;;;;;;;;;;;14.70;99.90;;;;;;5092352;28;19908;-23
2022/11/04 03:59:04;;;;;;;;;;;14.60;99.90;;;;;;5092686;28;19913;-23
2022/11/04 04:01:30;;;;;;;;;;;14.60;99.90;;;;;;5092220;28;19915;-23
2022/11/04 04:03:55;;;;;;;;;;;14.70;99.90;;;;;;5091975;28;19908;-23
2022/11/04 04:06:25;;;;;;;;;;;14.60;99.90;;;;;;5092018;28;19920;-23
2022/11/04 04:08:53;;;;;;;;;;;14.60;99.90;;;;;;5092034;28;19908;-23
2022/11/04 04:11:20;;;;;;;;;;;14.60;99.90;;;;;;5091932;28;19931;-23
2022/11/04 04:13:53;;;;;;;;;;;14.60;99.90;;;;;;5091420;28;20316;-23
2022/11/04 04:16:24;;;;;;;;;;;14.60;99.90;;;;;;5092064;28;19930;-23
2022/11/04 04:18:53;;;;;;;;;;;14.70;99.90;;;;;;5092227;28;19944;-23
2022/11/04 04:21:20;;;;;;;;;;;14.60;99.90;;;;;;5091990;28;19962;-23
2022/11/04 04:29:17;;;;;;;;;;;14.60;99.90;;;;;;5091889;28;20380;-23
2022/11/04 04:31:49;;;;;;;;;;;14.60;99.90;;;;;;5091822;28;19908;-23
2022/11/04 04:34:19;;;;;;;;;;;14.60;99.90;;;;;;5091264;28;19915;-23
2022/11/04 04:36:46;;;;;;;;;;;14.60;99.90;;;;;;5091783;28;19966;-23
2022/11/04 04:45:01;;;;;;;;;;;14.60;99.90;;;;;;5091074;28;19962;-23
2022/11/04 04:47:29;;;;;;;;;;;14.60;99.90;;;;;;5091645;28;20247;-23
2022/11/04 04:49:55;;;;;;;;;;;14.60;99.90;;;;;;5091471;28;20011;-23
2022/11/04 04:52:22;;;;;;;;;;;14.60;99.90;;;;;;5091461;28;20245;-23
2022/11/04 04:54:47;;;;;;;;;;;14.60;99.90;;;;;;5091271;28;20349;-23
2022/11/04 04:57:13;;;;;;;;;;;14.60;99.90;;;;;;5091558;28;19952;-23
2022/11/04 04:59:39;;;;;;;;;;;14.60;99.90;;;;;;5091528;28;20365;-23
2022/11/04 05:02:04;;;;;;;;;;;14.60;99.90;;;;;;5091441;28;19981;-23
2022/11/04 05:04:30;;;;;;;;;;;14.60;99.90;;;;;;5091023;28;19923;-23
2022/11/04 05:06:55;;;;;;;;;;;14.60;99.90;;;;;;5091487;28;19923;-23
2022/11/04 05:09:21;;;;;;;;;;;14.60;99.90;;;;;;5091278;28;19908;-23
2022/11/04 05:11:46;;;;;;;;;;;14.60;99.90;;;;;;5091186;28;19911;-23
2022/11/04 05:14:12;;;;;;;;;;;14.60;99.90;;;;;;5091009;28;20414;-23
2022/11/04 05:16:38;;;;;;;;;;;14.60;99.90;;;;;;5091190;28;19908;-23
2022/11/04 05:19:03;;;;;;;;;;;14.60;99.90;;;;;;5091111;28;19937;-23
2022/11/04 05:21:29;;;;;;;;;;;14.60;99.90;;;;;;5091305;28;19938;-23
2022/11/04 05:23:54;;;;;;;;;;;14.60;99.90;;;;;;5090887;28;19961;-23
2022/11/04 05:26:20;;;;;;;;;;;14.50;99.90;;;;;;5091324;28;19923;-23
2022/11/04 05:28:45;;;;;;;;;;;14.60;99.90;;;;;;5094732;28;19950;-23
2022/11/04 05:31:11;;;;;;;;;;;14.60;99.90;;;;;;5094923;28;19966;-23
2022/11/04 05:33:36;;;;;;;;;;;14.60;99.90;;;;;;5094633;28;19980;-23
2022/11/04 05:36:12;;;;;;;;;;;14.60;99.90;;;;;;5094937;28;19912;-23
2022/11/04 05:38:38;;;;;;;;;;;14.60;99.90;;;;;;5094649;28;19912;-23
2022/11/04 05:41:04;;;;;;;;;;;14.50;99.90;;;;;;5094798;28;19912;-23
2022/11/04 05:43:30;;;;;;;;;;;14.50;99.90;;;;;;5094418;28;19912;-22
2022/11/04 05:45:57;;;;;;;;;;;14.50;99.90;;;;;;5094952;28;19923;-23
2022/11/04 05:48:22;;;;;;;;;;;14.50;99.90;;;;;;5094675;28;20377;-23
2022/11/04 05:50:48;;;;;;;;;;;14.50;99.90;;;;;;5094652;28;19908;-23
2022/11/04 05:53:13;;;;;;;;;;;14.50;99.90;;;;;;5094013;28;19911;-23
2022/11/04 05:55:39;;;;;;;;;;;14.50;99.90;;;;;;5094653;28;20046;-23
2022/11/04 05:58:04;;;;;;;;;;;14.50;99.90;;;;;;5093042;28;20432;-23
2022/11/04 06:00:30;;;;;;;;;;;14.50;99.90;;;;;;5094337;28;20011;-23
2022/11/04 06:02:56;;;;;;;;;;;14.50;99.90;;;;;;5093842;28;19916;-23
2022/11/04 06:05:22;;;;;;;;;;;14.50;99.90;;;;;;5094135;28;19962;-23
2022/11/04 06:07:47;;;;;;;;;;;14.50;99.90;;;;;;5094278;28;19908;-23
2022/11/04 06:10:13;;;;;;;;;;;14.50;99.90;;;;;;5094190;28;19908;-23
2022/11/04 06:12:38;;;;;;;;;;;14.50;99.90;;;;;;5093556;28;19924;-23
2022/11/04 06:15:04;;;;;;;;;;;14.50;99.90;;;;;;5093979;28;19912;-23
2022/11/04 06:17:30;;;;;;;;;;;14.50;99.90;;;;;;5093907;28;19939;-23
2022/11/04 06:19:55;;;;;;;;;;;14.50;99.90;;;;;;5094146;28;19912;-23
2022/11/04 06:22:21;;;;;;;;;;;14.50;99.90;;;;;;5093714;28;19958;-23
2022/11/04 06:24:47;;;;;;;;;;;14.50;99.90;;;;;;5093624;28;19908;-23
2022/11/04 06:27:12;;;;;;;;;;;14.50;99.90;;;;;;5093934;28;19946;-23
2022/11/04 06:29:41;;;;;;;;;;;14.50;99.90;;;;;;5093937;28;20042;-23
2022/11/04 06:32:16;;;;;;;;;;;14.50;99.90;;;;;;5093697;28;20401;-23
2022/11/04 06:34:42;;;;;;;;;;;14.50;99.90;;;;;;5093584;28;20002;-23
2022/11/04 06:37:08;;;;;;;;;;;14.50;99.90;;;;;;5093708;28;19943;-23
2022/11/04 06:39:34;;;;;;;;;;;14.50;99.90;;;;;;5093504;28;19916;-23
2022/11/04 06:41:59;;;;;;;;;;;14.50;99.90;;;;;;5092460;28;19931;-23
2022/11/04 06:44:25;;;;;;;;;;;14.50;99.90;;;;;;5093191;28;20007;-23
2022/11/04 06:46:51;;;;;;;;;;;14.50;99.90;;;;;;5092149;28;19922;-23
2022/11/04 06:49:18;;;;;;;;;;;14.50;99.90;;;;;;5091911;28;19934;-23
2022/11/04 06:51:44;;;;;;;;;;;14.50;99.90;;;;;;5093236;28;19915;-23
2022/11/04 06:54:10;;;;;;;;;;;14.50;99.90;;;;;;5092928;28;19908;-23
2022/11/04 06:56:35;;;;;;;;;;;14.50;99.90;;;;;;5093498;28;20012;-23
2022/11/04 06:59:01;;;;;;;;;;;14.50;99.90;;;;;;5093189;28;19955;-23
2022/11/04 07:01:28;;;;;;;;;;;14.50;99.90;;;;;;5093284;28;19912;-23
2022/11/04 07:03:55;;;;;;;;;;;14.50;99.90;;;;;;5091524;28;19957;-23
2022/11/04 07:06:20;;;;;;;;;;;14.50;99.90;;;;;;5093432;28;19920;-23
2022/11/04 07:08:47;;;;;;;;;;;14.50;99.90;;;;;;5093271;28;19915;-23
2022/11/04 07:11:12;;;;;;;;;;;14.50;99.90;;;;;;5093202;28;19912;-23
2022/11/04 07:13:39;;;;;;;;;;;14.50;99.90;;;;;;5091285;28;20388;-23
2022/11/04 07:16:05;;;;;;;;;;;14.40;99.90;;;;;;5093093;28;20223;-23
2022/11/04 07:18:31;;;;;;;;;;;14.40;99.90;;;;;;5092811;28;20392;-23
2022/11/04 07:20:57;;;;;;;;;;;14.40;99.90;;;;;;5092792;28;19912;-23
2022/11/04 07:23:22;;;;;;;;;;;14.40;99.90;;;;;;5092535;28;20277;-23
2022/11/04 07:25:48;;;;;;;;;;;14.40;99.90;;;;;;5092999;28;20415;-22
2022/11/04 07:28:14;;;;;;;;;;;14.40;99.90;;;;;;5092582;28;19909;-23
2022/11/04 07:30:39;;;;;;;;;;;14.40;99.90;;;;;;5092583;28;19946;-23
2022/11/04 07:33:05;;;;;;;;;;;14.40;99.90;;;;;;5092156;28;19935;-23
2022/11/04 07:35:30;;;;;;;;;;;14.40;99.90;;;;;;5092466;28;20382;-23
2022/11/04 07:37:56;;;;;;;;;;;14.40;99.90;;;;;;5092531;28;19908;-23
2022/11/04 07:40:21;;;;;;;;;;;14.40;99.90;;;;;;5092784;28;19916;-23
2022/11/04 07:42:47;;;;;;;;;;;14.40;99.90;;;;;;5092067;28;19954;-23
2022/11/04 07:45:12;;;;;;;;;;;14.40;99.90;;;;;;5092003;28;19912;-23
2022/11/04 07:47:38;;;;;;;;;;;14.40;99.90;;;;;;5091994;28;20389;-23
2022/11/04 07:50:04;;;;;;;;;;;14.40;99.90;;;;;;5091324;28;20365;-23
2022/11/04 07:52:29;;;;;;;;;;;14.40;99.90;;;;;;5091752;28;19920;-23
2022/11/04 07:54:55;;;;;;;;;;;14.40;99.90;;;;;;5092030;28;19933;-23
2022/11/04 07:57:21;;;;;;;;;;;14.40;99.90;;;;;;5091837;28;19912;-23
2022/11/04 07:59:46;;;;;;;;;;;14.40;99.90;;;;;;5092077;28;19936;-23
2022/11/04 08:02:12;;;;;;;;;;;14.40;99.90;;;;;;5091989;28;20381;-23
2022/11/04 08:04:37;;;;;;;;;;;14.40;99.90;;;;;;5091400;28;20341;-23
2022/11/04 08:07:06;;;;;;;;;;;14.40;99.90;;;;;;5091795;28;19956;-23
2022/11/04 08:09:32;;;;;;;;;;;14.40;99.90;;;;;;5091828;28;19916;-23
2022/11/04 08:11:57;;;;;;;;;;;14.40;99.90;;;;;;5091933;28;20281;-23
2022/11/04 08:14:23;;;;;;;;;;;14.40;99.90;;;;;;5091662;28;19908;-23
2022/11/04 08:16:51;;;;;;;;;;;14.30;99.90;;;;;;5091940;28;19915;-23
2022/11/04 08:19:16;;;;;;;;;;;14.00;99.90;;;;;;5091574;28;20057;-23
2022/11/04 08:21:42;;;;;;;;;;;14.00;99.90;;;;;;5091824;28;19987;-23
2022/11/04 08:24:07;;;;;;;;;;;14.00;99.90;;;;;;5091327;28;19985;-23
2022/11/04 08:26:33;;;;;;;;;;;14.00;99.90;;;;;;5091566;28;20405;-23
2022/11/04 08:29:01;;;;;;;;;;;14.10;99.90;;;;;;5091582;28;19908;-23
2022/11/04 08:31:28;;;;;;;;;;;14.20;99.90;;;;;;5091625;28;19920;-23
2022/11/04 08:33:54;;;;;;;;;;;14.20;99.90;;;;;;5091217;28;20156;-23
2022/11/04 08:36:24;;;;;;;;;;;14.20;99.90;;;;;;5091656;28;19988;-23
2022/11/04 08:38:50;;;;;;;;;;;14.30;99.90;;;;;;5091392;28;20506;-23
2022/11/04 08:41:18;;;;;;;;;;;14.30;99.90;;;;;;5091705;28;20373;-23
2022/11/04 08:43:44;;;;;;;;;;;14.30;99.90;;;;;;5091074;28;20340;-22
2022/11/04 08:46:10;;;;;;;;;;;14.30;99.90;;;;;;5091340;28;19916;-23
2022/11/04 08:48:37;;;;;;;;;;;14.30;99.90;;;;;;5091381;28;19916;-23
2022/11/04 08:51:04;;;;;;;;;;;14.40;99.90;;;;;;5091506;28;19995;-22
2022/11/04 08:53:29;;;;;;;;;;;14.30;99.90;;;;;;5090532;28;19995;-23
2022/11/04 08:55:55;;;;;;;;;;;14.40;99.90;;;;;;5090987;28;20350;-23
2022/11/04 08:58:22;;;;;;;;;;;14.40;99.90;;;;;;5091273;28;19916;-23
2022/11/04 09:00:48;;;;;;;;;;;14.40;99.90;;;;;;5092307;28;19908;-23
2022/11/04 09:03:14;;;;;;;;;;;14.40;99.90;;;;;;5094971;28;19934;-22
2022/11/04 09:05:43;;;;;;;;;;;14.40;99.90;;;;;;5095393;28;19948;-22
2022/11/04 09:08:12;;;;;;;;;;;14.40;99.90;;;;;;5095443;28;20343;-23
2022/11/04 09:10:42;;;;;;;;;;;14.40;99.90;;;;;;5095011;28;19994;-23
2022/11/04 09:13:10;;;;;;;;;;;14.40;99.90;;;;;;5094905;28;19953;-23
2022/11/04 09:15:36;;;;;;;;;;;14.40;99.90;;;;;;5095369;28;19908;-23
2022/11/04 09:18:02;;;;;;;;;;;14.40;99.90;;;;;;5095144;28;19958;-23
2022/11/04 09:20:28;;;;;;;;;;;14.40;99.90;;;;;;5095213;28;19909;-23
2022/11/04 09:22:54;;;;;;;;;;;14.40;99.90;;;;;;5094607;28;20371;-22
2022/11/04 09:25:19;;;;;;;;;;;14.40;99.90;;;;;;5095116;28;19923;-23
2022/11/04 09:27:45;;;;;;;;;;;14.40;99.90;;;;;;5093922;28;19908;-23
2022/11/04 09:30:11;;;;;;;;;;;14.40;99.90;;;;;;5094855;28;19912;-23
2022/11/04 09:32:36;;;;;;;;;;;14.40;99.90;;;;;;5094454;28;20340;-23
2022/11/04 09:35:02;;;;;;;;;;;14.40;99.90;;;;;;5095012;28;20003;-23
2022/11/04 09:37:27;;;;;;;;;;;14.40;99.90;;;;;;5095022;28;19908;-23
2022/11/04 09:39:53;;;;;;;;;;;14.40;99.90;;;;;;5094626;28;19938;-23
2022/11/04 09:42:29;;;;;;;;;;;14.40;99.90;;;;;;5094747;28;20050;-22
2022/11/04 09:44:59;;;;;;;;;;;14.40;99.90;;;;;;5094538;28;19908;-23
2022/11/04 09:47:25;;;;;;;;;;;14.40;99.90;;;;;;5094779;28;19908;-23
2022/11/04 09:49:54;;;;;;;;;;;14.40;99.90;;;;;;5094613;28;20303;-23
2022/11/04 09:52:31;;;;;;;;;;;14.40;99.90;;;;;;5094825;28;19991;-23
2022/11/04 09:55:15;;;;;;;;;;;14.40;99.90;;;;;;5094360;28;19912;-23
2022/11/04 09:57:41;;;;;;;;;;;14.40;99.90;;;;;;5094366;28;19965;-22
2022/11/04 10:00:13;;;;;;;;;;;14.40;99.90;;;;;;5094573;28;19912;-23
2022/11/04 10:02:42;;;;;;;;;;;14.40;99.90;;;;;;5094072;28;19908;-23
2022/11/04 10:05:28;;;;;;;;;;;14.40;99.90;;;;;;5094285;28;19912;-23
2022/11/04 10:08:13;;;;;;;;;;;14.40;99.90;;;;;;5092915;28;19953;-23
2022/11/04 10:10:38;;;;;;;;;;;14.40;99.90;;;;;;5094094;28;20349;-22
2022/11/04 10:13:20;;;;;;;;;;;14.40;99.90;;;;;;5092918;28;20006;-23
2022/11/04 10:16:06;;;;;;;;;;;14.40;99.90;;;;;;5094008;28;19908;-23
2022/11/04 10:18:49;;;;;;;;;;;14.40;99.90;;;;;;5086173;28;20384;-23
2022/11/04 10:21:15;;;;;;;;;;;14.40;99.90;;;;;;5093994;28;20009;-23
2022/11/04 10:23:47;;;;;;;;;;;14.40;99.90;;;;;;5093457;28;20383;-23
2022/11/04 10:26:35;;;;;;;;;;;14.40;99.90;;;;;;5094093;28;19919;-23
2022/11/04 10:29:05;;;;;;;;;;;14.50;99.90;;;;;;5073820;28;19919;-23
2022/11/04 10:31:34;;;;;;;;;;;14.40;99.90;;;;;;5094031;28;19912;-23
2022/11/04 10:34:07;;;;;;;;;;;14.40;99.90;;;;;;5093431;28;19953;-23
2022/11/04 10:36:34;;;;;;;;;;;14.50;99.90;;;;;;5093788;28;20170;-22
2022/11/04 10:39:01;;;;;;;;;;;14.50;99.90;;;;;;5093466;28;20121;-23
2022/11/04 10:41:34;;;;;;;;;;;14.50;99.90;;;;;;5093595;28;20396;-23
2022/11/04 10:44:32;;;;;;;;;;;14.50;99.90;;;;;;5093213;28;19912;-23
2022/11/04 10:47:03;;;;;;;;;;;14.50;99.90;;;;;;5069765;28;19965;-22
2022/11/04 10:49:37;;;;;;;;;;;14.50;99.90;;;;;;5093378;28;19908;-23
2022/11/04 10:52:04;;;;;;;;;;;14.50;99.90;;;;;;5093502;28;20444;-23
2022/11/04 10:54:33;;;;;;;;;;;14.50;99.90;;;;;;5093221;28;19912;-22
2022/11/04 10:56:58;;;;;;;;;;;14.50;99.90;;;;;;5093282;28;20290;-23
2022/11/04 10:59:47;;;;;;;;;;;14.50;99.90;;;;;;5093086;28;20545;-23
2022/11/04 11:02:13;;;;;;;;;;;14.50;99.90;;;;;;5087350;28;20428;-23
2022/11/04 11:04:43;;;;;;;;;;;14.50;99.90;;;;;;5092854;28;19999;-23
2022/11/04 11:07:10;;;;;;;;;;;14.50;99.90;;;;;;5093031;28;19998;-23
2022/11/04 11:09:48;;;;;;;;;;;14.50;99.90;;;;;;5093095;28;19954;-22
2022/11/04 11:12:14;;;;;;;;;;;14.40;99.90;;;;;;5093138;28;19920;-23
2022/11/04 11:14:40;;;;;;;;;;;14.50;99.90;;;;;;5092482;28;20090;-23
2022/11/04 11:17:20;;;;;;;;;;;14.50;99.90;;;;;;5092976;28;19912;-23
2022/11/04 11:19:58;;;;;;;;;;;14.50;99.90;;;;;;5092903;28;19912;-23
2022/11/04 11:22:27;;;;;;;;;;;14.50;99.90;;;;;;5092567;28;19962;-23
2022/11/04 11:24:52;;;;;;;;;;;14.50;99.90;;;;;;5091856;28;19970;-22
2022/11/04 11:27:21;;;;;;;;;;;14.50;99.90;;;;;;5092553;28;20386;-23
2022/11/04 11:29:54;;;;;;;;;;;14.50;99.90;;;;;;5092743;28;19958;-23
2022/11/04 11:32:26;;;;;;;;;;;14.60;99.90;;;;;;5092526;28;19951;-23
2022/11/04 11:34:52;;;;;;;;;;;14.60;99.90;;;;;;5092446;28;19912;-23
2022/11/04 11:37:20;;;;;;;;;;;14.60;99.90;;;;;;5092545;28;20270;-23
2022/11/04 11:39:45;;;;;;;;;;;14.60;99.90;;;;;;5092328;28;19916;-23
2022/11/04 11:42:14;;;;;;;;;;;14.60;99.90;;;;;;5092625;28;19912;-22
2022/11/04 11:44:43;;;;;;;;;;;14.60;99.90;;;;;;5092113;28;20421;-22
2022/11/04 11:47:23;;;;;;;;;;;14.60;99.90;;;;;;5092305;28;19912;-23
2022/11/04 11:50:04;;;;;;;;;;;14.60;99.90;;;;;;5092518;28;19961;-23
2022/11/04 11:52:35;;;;;;;;;;;14.60;99.90;;;;;;5091796;28;19912;-23
2022/11/04 11:55:22;;;;;;;;;;;14.70;99.90;;;;;;5092261;28;19964;-23
2022/11/04 11:58:06;;;;;;;;;;;14.70;99.90;;;;;;5092107;28;20298;-23
2022/11/04 12:00:35;;;;;;;;;;;14.70;99.90;;;;;;5091932;28;19919;-23
2022/11/04 12:03:14;;;;;;;;;;;14.70;99.90;;;;;;5091711;28;20003;-23
2022/11/04 12:05:55;;;;;;;;;;;14.70;99.90;;;;;;5092212;28;19911;-23
2022/11/04 12:08:21;;;;;;;;;;;14.70;99.90;;;;;;5092159;28;19966;-23
2022/11/04 12:11:04;;;;;;;;;;;14.70;99.90;;;;;;5092235;28;20305;-23
2022/11/04 12:13:33;;;;;;;;;;;14.70;99.90;;;;;;5091957;28;20274;-22
2022/11/04 12:16:21;;;;;;;;;;;14.70;99.90;;;;;;5092252;28;19919;-23
2022/11/04 12:18:56;;;;;;;;;;;14.70;99.90;;;;;;5092032;28;19908;-22
2022/11/04 12:21:25;;;;;;;;;;;14.70;99.90;;;;;;5091696;28;19908;-22
2022/11/04 12:23:58;;;;;;;;;;;14.80;99.90;;;;;;5091366;28;19918;-23
2022/11/04 12:26:44;;;;;;;;;;;14.80;99.90;;;;;;5092081;28;19916;-23
2022/11/04 12:29:10;;;;;;;;;;;14.90;99.90;;;;;;5091527;28;20007;-23
2022/11/04 12:31:56;;;;;;;;;;;14.90;99.90;;;;;;5091860;28;20010;-22
2022/11/04 12:34:24;;;;;;;;;;;15.00;99.90;;;;;;5083770;28;19957;-23
2022/11/04 12:36:49;;;;;;;;;;;15.00;99.90;;;;;;5091476;28;19916;-22
2022/11/04 12:39:32;;;;;;;;;;;15.00;99.90;;;;;;5091484;28;19920;-23
2022/11/04 12:41:57;;;;;;;;;;;15.10;99.90;;;;;;5092220;28;19951;-23
2022/11/04 12:44:22;;;;;;;;;;;15.10;99.90;;;;;;5090904;28;20313;-22
2022/11/04 12:46:54;;;;;;;;;;;15.10;99.90;;;;;;5092053;28;19912;-23
2022/11/04 12:49:23;;;;;;;;;;;15.10;99.90;;;;;;5091823;28;19908;-23
2022/11/04 12:51:48;;;;;;;;;;;15.20;99.90;;;;;;5090178;28;19959;-23
2022/11/04 12:54:26;;;;;;;;;;;15.20;99.90;;;;;;5090920;28;19954;-23
2022/11/04 12:57:22;;;;;;;;;;;15.20;99.90;;;;;;5091552;28;19912;-23
2022/11/04 12:59:53;;;;;;;;;;;15.20;99.90;;;;;;5082558;28;19934;-23
2022/11/04 13:02:24;;;;;;;;;;;15.20;99.90;;;;;;5091492;28;20156;-23
2022/11/04 13:04:53;;;;;;;;;;;15.20;99.90;;;;;;5091180;28;19912;-23
2022/11/04 13:07:21;;;;;;;;;;;15.20;99.90;;;;;;5091247;28;20348;-23
2022/11/04 13:09:54;;;;;;;;;;;15.10;99.90;;;;;;5091343;28;19982;-23
2022/11/04 13:12:21;;;;;;;;;;;15.20;99.90;;;;;;5091227;28;20396;-22
2022/11/04 13:14:49;;;;;;;;;;;15.10;99.90;;;;;;5090944;28;20327;-23
2022/11/04 13:17:18;;;;;;;;;;;15.10;99.90;;;;;;5091097;28;19922;-23
2022/11/04 13:19:50;;;;;;;;;;;15.10;99.90;;;;;;5091074;28;19999;-23
2022/11/04 13:22:19;;;;;;;;;;;15.10;99.90;;;;;;5089897;28;19934;-23
2022/11/04 13:24:50;;;;;;;;;;;15.10;99.90;;;;;;5090825;28;19908;-23
2022/11/04 13:27:22;;;;;;;;;;;15.10;99.90;;;;;;5091094;28;19939;-23
2022/11/04 13:29:49;;;;;;;;;;;15.10;99.90;;;;;;5091110;28;19958;-23
2022/11/04 13:32:28;;;;;;;;;;;15.10;99.90;;;;;;5091678;28;19908;-23
2022/11/04 13:34:57;;;;;;;;;;;15.00;99.90;;;;;;5089922;28;19990;-23
2022/11/04 13:37:41;;;;;;;;;;;15.00;99.90;;;;;;5091108;28;20274;-23
2022/11/04 13:40:18;;;;;;;;;;;15.00;99.90;;;;;;5091619;28;20296;-23
2022/11/04 13:42:53;;;;;;;;;;;15.00;99.90;;;;;;5090521;28;19919;-23
2022/11/04 13:45:19;;;;;;;;;;;14.90;99.90;;;;;;5091274;28;19966;-23
2022/11/04 13:47:52;;;;;;;;;;;14.90;99.90;;;;;;5091923;28;19908;-23
2022/11/04 13:50:34;;;;;;;;;;;14.90;99.90;;;;;;5094478;28;19958;-23
2022/11/04 13:52:59;;;;;;;;;;;14.80;99.90;;;;;;5094146;28;19912;-23
2022/11/04 13:55:25;;;;;;;;;;;14.80;99.90;;;;;;5094541;28;19914;-23
2022/11/04 13:57:52;;;;;;;;;;;14.80;99.90;;;;;;5094791;28;20391;-23
2022/11/04 14:00:25;;;;;;;;;;;14.80;99.90;;;;;;5094390;28;20405;-23
2022/11/04 14:02:52;;;;;;;;;;;14.80;99.90;;;;;;5093491;28;19923;-23
2022/11/04 14:05:31;;;;;;;;;;;14.80;99.90;;;;;;5094425;28;20003;-22
2022/11/04 14:10:37;;;;;;;;;;;14.70;99.90;;;;;;5094316;28;19922;-23
2022/11/04 14:13:21;;;;;;;;;;;14.70;99.90;;;;;;5093794;28;19961;-23
2022/11/04 14:16:03;;;;;;;;;;;14.70;99.90;;;;;;5094496;28;19914;-23
2022/11/04 14:18:38;;;;;;;;;;;14.70;99.90;;;;;;5094068;28;19908;-23
2022/11/04 14:21:06;;;;;;;;;;;14.70;99.90;;;;;;5094089;28;20050;-23
2022/11/04 14:23:33;;;;;;;;;;;14.70;99.90;;;;;;5093549;28;19916;-23
2022/11/04 14:26:00;;;;;;;;;;;14.80;99.90;;;;;;5094288;28;19912;-23
2022/11/04 14:28:28;;;;;;;;;;;14.80;99.90;;;;;;5093857;28;19912;-23
2022/11/04 14:30:59;;;;;;;;;;;14.80;99.90;;;;;;5093738;28;19912;-23
2022/11/04 14:33:32;;;;;;;;;;;14.80;99.90;;;;;;5092130;28;20339;-23
2022/11/04 14:36:13;;;;;;;;;;;14.80;99.90;;;;;;5093755;28;19908;-23
2022/11/04 14:38:39;;;;;;;;;;;14.80;99.90;;;;;;5093635;28;19990;-23
2022/11/04 14:41:28;;;;;;;;;;;14.80;99.90;;;;;;5093773;28;19912;-23
2022/11/04 14:43:54;;;;;;;;;;;14.80;99.90;;;;;;5093162;28;20373;-23
2022/11/04 14:46:21;;;;;;;;;;;14.80;99.90;;;;;;5093537;28;19919;-23
2022/11/04 14:48:51;;;;;;;;;;;14.80;99.90;;;;;;5093155;28;19908;-23
2022/11/04 14:51:23;;;;;;;;;;;14.80;99.90;;;;;;5093455;28;19950;-23
2022/11/04 14:53:49;;;;;;;;;;;14.80;99.90;;;;;;5092761;28;19915;-23
2022/11/04 14:56:21;;;;;;;;;;;14.80;99.90;;;;;;5093739;28;19908;-23
2022/11/04 14:58:55;;;;;;;;;;;14.70;99.90;;;;;;5092935;28;19915;-22
2022/11/04 15:01:21;;;;;;;;;;;14.70;99.90;;;;;;5093019;28;19908;-23